createdAt,value
2022-08-01T00:00:15.898Z,20.60
2022-08-01T00:02:45.762Z,15.53
2022-08-01T00:05:15.775Z,17.40
2022-08-01T00:07:45.624Z,14.93
2022-08-01T00:10:17.190Z,15.43
2022-08-01T00:12:47.298Z,14.87
2022-08-01T00:15:18.620Z,16.37
2022-08-01T00:17:48.383Z,20.17
2022-08-01T00:20:18.119Z,15.07
2022-08-01T00:22:47.881Z,13.50
2022-08-01T00:25:17.914Z,13.03
2022-08-01T00:27:47.752Z,14.13
2022-08-01T00:30:17.457Z,14.23
2022-08-01T00:32:47.393Z,11.63
2022-08-01T00:35:17.312Z,10.60
2022-08-01T00:37:47.080Z,15.97
2022-08-01T00:40:16.990Z,12.40
2022-08-01T00:42:46.829Z,16.30
2022-08-01T00:45:16.315Z,13.60
2022-08-01T00:47:46.141Z,15.53
2022-08-01T00:50:16.809Z,13.08
2022-08-01T00:52:51.608Z,12.13
2022-08-01T00:55:20.228Z,13.70
2022-08-01T00:58:03.244Z,12.80
2022-08-01T01:00:27.545Z,15.60
2022-08-01T01:02:54.791Z,14.93
2022-08-01T01:05:24.751Z,16.53
2022-08-01T01:08:03.923Z,15.40
2022-08-01T01:10:51.721Z,14.18
2022-08-01T01:13:50.094Z,16.90
2022-08-01T01:16:19.369Z,12.90
2022-08-01T01:18:57.428Z,17.07
2022-08-01T01:21:39.265Z,14.37
2022-08-01T01:24:41.723Z,15.30
2022-08-01T01:27:32.241Z,17.95
2022-08-01T01:30:03.144Z,13.77
2022-08-01T01:32:47.500Z,15.47
2022-08-01T01:35:26.348Z,12.37
2022-08-01T01:37:59.244Z,14.40
2022-08-01T01:40:31.350Z,15.98
2022-08-01T01:43:01.570Z,17.70
2022-08-01T01:45:32.805Z,15.23
2022-08-01T01:48:03.829Z,13.43
2022-08-01T01:50:34.947Z,18.75
2022-08-01T01:53:07.642Z,15.47
2022-08-01T01:55:49.372Z,15.77
2022-08-01T01:58:15.068Z,16.48
2022-08-01T02:00:46.191Z,16.83
2022-08-01T02:03:16.888Z,15.43
2022-08-01T02:05:47.910Z,14.57
2022-08-01T02:08:19.132Z,17.05
2022-08-01T02:11:09.883Z,17.73
2022-08-01T02:13:42.196Z,16.30
2022-08-01T02:16:12.225Z,16.17
2022-08-01T02:18:43.427Z,18.13
2022-08-01T02:21:16.282Z,16.23
2022-08-01T02:23:46.591Z,18.43
2022-08-01T02:28:53.630Z,16.50
2022-08-01T02:31:24.946Z,16.33
2022-08-01T02:34:02.351Z,17.00
2022-08-01T02:36:34.803Z,19.67
2022-08-01T02:39:07.618Z,18.73
2022-08-01T02:41:40.469Z,17.67
2022-08-01T02:44:14.345Z,19.03
2022-08-01T02:46:47.171Z,15.67
2022-08-01T02:49:20.263Z,17.63
2022-08-01T02:51:52.075Z,19.10
2022-08-01T02:54:24.180Z,17.95
2022-08-01T02:56:55.288Z,19.43
2022-08-01T02:59:28.485Z,19.43
2022-08-01T03:02:03.130Z,18.37
2022-08-01T03:04:35.781Z,17.43
2022-08-01T03:07:07.916Z,16.33
2022-08-01T03:09:44.181Z,18.00
2022-08-01T03:12:22.827Z,18.13
2022-08-01T03:14:55.617Z,16.30
2022-08-01T03:17:28.914Z,18.65
2022-08-01T03:20:00.938Z,15.40
2022-08-01T03:22:33.390Z,17.60
2022-08-01T03:25:04.909Z,16.70
2022-08-01T03:27:37.119Z,21.00
2022-08-01T03:30:09.471Z,20.50
2022-08-01T03:32:40.115Z,16.90
2022-08-01T03:35:10.942Z,19.27
2022-08-01T03:38:13.536Z,23.03
2022-08-01T03:40:29.491Z,21.63
2022-08-01T03:43:02.292Z,19.87
2022-08-01T03:45:35.136Z,23.03
2022-08-01T03:48:09.455Z,21.43
2022-08-01T03:50:42.314Z,21.03
2022-08-01T03:53:13.543Z,24.23
2022-08-01T03:55:45.564Z,20.77
2022-08-01T03:58:16.178Z,25.50
2022-08-01T04:00:46.501Z,22.63
2022-08-01T04:03:16.724Z,23.23
2022-08-01T04:05:46.875Z,20.57
2022-08-01T04:08:16.986Z,20.30
2022-08-01T04:10:46.749Z,18.27
2022-08-01T04:13:18.365Z,25.40
2022-08-01T04:15:48.222Z,17.77
2022-08-01T04:18:17.999Z,21.65
2022-08-01T04:20:49.157Z,22.80
2022-08-01T04:23:21.655Z,21.63
2022-08-01T04:25:53.577Z,21.77
2022-08-01T04:28:24.804Z,19.50
2022-08-01T04:31:01.795Z,22.00
2022-08-01T04:33:31.847Z,20.70
2022-08-01T04:36:04.970Z,25.07
2022-08-01T04:38:37.729Z,20.97
2022-08-01T04:41:10.518Z,25.67
2022-08-01T04:43:44.190Z,21.30
2022-08-01T04:46:15.469Z,26.17
2022-08-01T04:48:46.104Z,21.80
2022-08-01T04:51:17.753Z,20.73
2022-08-01T04:53:47.710Z,20.23
2022-08-01T04:56:17.198Z,20.63
2022-08-01T04:58:47.206Z,21.80
2022-08-01T05:01:17.066Z,19.57
2022-08-01T05:03:46.863Z,20.63
2022-08-01T05:06:16.341Z,20.00
2022-08-01T05:08:46.793Z,20.40
2022-08-01T05:11:16.573Z,18.93
2022-08-01T05:13:48.052Z,20.13
2022-08-01T05:16:18.378Z,18.60
2022-08-01T05:18:48.183Z,16.60
2022-08-01T05:21:17.656Z,18.60
2022-08-01T05:23:49.386Z,15.88
2022-08-01T05:26:19.459Z,16.45
2022-08-01T05:28:49.251Z,18.57
2022-08-01T05:31:19.024Z,16.83
2022-08-01T05:33:48.831Z,18.30
2022-08-01T05:36:18.431Z,20.27
2022-08-01T05:38:48.230Z,18.17
2022-08-01T05:41:18.072Z,17.70
2022-08-01T05:43:47.927Z,16.77
2022-08-01T05:46:17.479Z,21.53
2022-08-01T05:48:47.348Z,17.77
2022-08-01T05:51:16.852Z,16.67
2022-08-01T05:53:46.644Z,15.33
2022-08-01T05:56:16.191Z,15.97
2022-08-01T05:58:45.978Z,16.57
2022-08-01T06:01:15.763Z,15.73
2022-08-01T06:03:45.318Z,16.50
2022-08-01T06:06:17.968Z,17.30
2022-08-01T06:08:47.893Z,17.27
2022-08-01T06:11:19.446Z,13.90
2022-08-01T06:13:49.382Z,17.10
2022-08-01T06:16:19.288Z,16.87
2022-08-01T06:18:50.019Z,17.93
2022-08-01T06:21:21.091Z,15.35
2022-08-01T06:23:51.151Z,14.03
2022-08-01T06:26:21.871Z,12.43
2022-08-01T06:28:51.942Z,13.65
2022-08-01T06:31:21.806Z,14.47
2022-08-01T06:33:51.293Z,13.30
2022-08-01T06:36:21.081Z,13.68
2022-08-01T06:38:50.868Z,14.83
2022-08-01T06:41:20.673Z,14.80
2022-08-01T06:43:50.743Z,12.13
2022-08-01T06:46:20.536Z,13.08
2022-08-01T06:48:50.663Z,9.95
2022-08-01T06:51:21.821Z,11.10
2022-08-01T06:53:54.559Z,12.50
2022-08-01T06:56:24.327Z,8.50
2022-08-01T06:58:54.169Z,11.90
2022-08-01T07:01:24.047Z,10.37
2022-08-01T07:03:55.035Z,6.40
2022-08-01T07:06:25.830Z,5.97
2022-08-01T07:08:55.783Z,4.87
2022-08-01T07:11:26.273Z,6.33
2022-08-01T07:13:56.107Z,3.83
2022-08-01T07:16:25.806Z,2.63
2022-08-01T07:18:55.657Z,3.17
2022-08-01T07:21:39.059Z,8.23
2022-08-01T07:23:56.957Z,3.80
2022-08-01T07:26:27.653Z,1.10
2022-08-01T07:28:57.835Z,1.75
2022-08-01T07:31:32.002Z,0.93
2022-08-01T07:33:59.304Z,1.93
2022-08-01T07:36:29.060Z,1.87
2022-08-01T07:38:58.931Z,1.10
2022-08-01T07:41:53.869Z,2.50
2022-08-01T07:44:04.714Z,2.08
2022-08-01T07:46:32.232Z,1.47
2022-08-01T07:49:02.042Z,1.10
2022-08-01T07:51:32.127Z,2.30
2022-08-01T07:54:02.192Z,1.90
2022-08-01T07:56:31.955Z,1.07
2022-08-01T07:59:01.726Z,1.20
2022-08-01T08:01:31.566Z,1.90
2022-08-01T08:04:01.334Z,1.87
2022-08-01T08:06:31.101Z,3.13
2022-08-01T08:09:00.853Z,2.77
2022-08-01T08:11:30.695Z,3.50
2022-08-01T08:14:00.741Z,3.42
2022-08-01T08:16:30.234Z,1.95
2022-08-01T08:19:00.053Z,1.90
2022-08-01T08:21:31.154Z,1.83
2022-08-01T08:24:18.853Z,1.43
2022-08-01T08:26:52.216Z,1.20
2022-08-01T08:29:22.798Z,1.00
2022-08-01T08:31:53.915Z,0.83
2022-08-01T08:34:24.085Z,1.37
2022-08-01T08:36:55.460Z,2.47
2022-08-01T08:39:25.354Z,3.07
2022-08-01T08:41:55.192Z,2.93
2022-08-01T08:44:24.657Z,2.17
2022-08-01T08:46:56.838Z,0.97
2022-08-01T08:49:35.850Z,2.40
2022-08-01T08:52:02.567Z,1.53
2022-08-01T08:54:34.683Z,2.20
2022-08-01T08:57:04.923Z,1.10
2022-08-01T08:59:35.348Z,1.40
2022-08-01T09:02:08.242Z,4.40
2022-08-01T09:04:40.911Z,3.33
2022-08-01T09:07:12.533Z,3.17
2022-08-01T09:09:42.371Z,2.67
2022-08-01T09:12:12.390Z,0.68
2022-08-01T09:14:51.350Z,3.35
2022-08-01T09:17:21.608Z,2.27
2022-08-01T09:19:54.919Z,1.62
2022-08-01T09:22:26.214Z,3.17
2022-08-01T09:25:11.662Z,1.30
2022-08-01T09:27:44.392Z,1.45
2022-08-01T09:30:19.466Z,1.95
2022-08-01T09:33:06.209Z,1.95
2022-08-01T09:35:43.437Z,1.20
2022-08-01T09:38:18.554Z,3.50
2022-08-01T09:40:53.198Z,1.27
2022-08-01T09:43:25.280Z,2.13
2022-08-01T09:45:58.622Z,1.95
2022-08-01T09:48:29.667Z,3.43
2022-08-01T09:51:03.915Z,1.20
2022-08-01T09:53:47.473Z,1.10
2022-08-01T09:56:18.772Z,2.00
2022-08-01T09:58:59.275Z,1.23
2022-08-01T10:01:25.640Z,3.00
2022-08-01T10:04:12.385Z,1.70
2022-08-01T10:06:44.862Z,2.52
2022-08-01T10:09:16.098Z,1.10
2022-08-01T10:11:46.323Z,0.77
2022-08-01T10:14:18.358Z,0.95
2022-08-01T10:16:53.547Z,2.13
2022-08-01T10:19:24.222Z,1.10
2022-08-01T10:21:58.019Z,1.50
2022-08-01T10:24:29.030Z,1.42
2022-08-01T10:27:06.142Z,2.00
2022-08-01T10:29:58.959Z,8.00
2022-08-01T10:32:11.704Z,2.54
2022-08-01T10:34:44.926Z,2.60
2022-08-01T10:37:15.797Z,2.23
2022-08-01T10:39:47.007Z,1.30
2022-08-01T10:42:16.883Z,4.08
2022-08-01T10:44:48.939Z,1.77
2022-08-01T10:47:26.850Z,2.40
2022-08-01T10:50:02.522Z,3.25
2022-08-01T10:52:35.446Z,3.87
2022-08-01T10:55:06.020Z,3.75
2022-08-01T10:57:48.831Z,4.57
2022-08-01T11:00:23.610Z,2.40
2022-08-01T11:03:04.390Z,3.93
2022-08-01T11:05:36.684Z,5.60
2022-08-01T11:08:16.642Z,2.98
2022-08-01T11:10:46.560Z,3.13
2022-08-01T11:13:16.602Z,3.05
2022-08-01T11:15:50.478Z,3.90
2022-08-01T11:18:32.625Z,3.30
2022-08-01T11:21:59.403Z,5.00
2022-08-01T11:23:39.190Z,2.13
2022-08-01T11:26:12.410Z,3.35
2022-08-01T11:29:04.733Z,5.50
2022-08-01T11:31:19.860Z,5.00
2022-08-01T11:33:50.849Z,2.50
2022-08-01T11:36:48.751Z,2.83
2022-08-01T11:39:13.280Z,4.00
2022-08-01T11:41:45.299Z,3.40
2022-08-01T11:44:30.425Z,5.33
2022-08-01T11:47:10.052Z,3.35
2022-08-01T11:49:43.991Z,5.40
2022-08-01T11:52:30.985Z,5.30
2022-08-01T11:55:10.217Z,4.80
2022-08-01T11:57:38.983Z,5.30
2022-08-01T12:00:17.750Z,5.92
2022-08-01T12:02:48.963Z,3.07
2022-08-01T12:05:24.983Z,7.93
2022-08-01T12:07:54.535Z,4.75
2022-08-01T12:10:27.998Z,5.58
2022-08-01T12:13:00.575Z,6.60
2022-08-01T12:15:35.596Z,5.93
2022-08-01T12:18:08.194Z,3.60
2022-08-01T12:20:55.669Z,6.95
2022-08-01T12:23:15.102Z,7.17
2022-08-01T12:25:44.932Z,6.07
2022-08-01T12:28:14.846Z,4.33
2022-08-01T12:30:44.896Z,3.95
2022-08-01T12:33:17.741Z,6.57
2022-08-01T12:35:47.588Z,4.60
2022-08-01T12:38:20.138Z,10.03
2022-08-01T12:40:53.098Z,7.30
2022-08-01T12:43:28.250Z,9.18
2022-08-01T12:45:59.829Z,6.40
2022-08-01T12:48:31.804Z,3.87
2022-08-01T12:51:03.048Z,6.05
2022-08-01T12:53:41.292Z,8.57
2022-08-01T12:56:12.283Z,6.84
2022-08-01T12:58:42.189Z,4.80
2022-08-01T13:01:14.379Z,10.45
2022-08-01T13:03:47.594Z,5.35
2022-08-01T13:06:18.247Z,8.43
2022-08-01T13:08:48.140Z,5.00
2022-08-01T13:11:19.636Z,4.87
2022-08-01T13:13:51.455Z,4.87
2022-08-01T13:16:31.258Z,3.17
2022-08-01T13:18:58.134Z,5.07
2022-08-01T13:21:52.014Z,4.40
2022-08-01T13:24:15.654Z,3.93
2022-08-01T13:26:50.460Z,5.33
2022-08-01T13:29:23.977Z,9.33
2022-08-01T13:31:53.784Z,8.43
2022-08-01T13:34:34.889Z,6.00
2022-08-01T13:37:04.804Z,4.00
2022-08-01T13:39:42.926Z,5.03
2022-08-01T13:42:16.439Z,5.30
2022-08-01T13:44:46.721Z,4.87
2022-08-01T13:47:16.987Z,7.77
2022-08-01T13:49:46.935Z,3.97
2022-08-01T13:52:16.673Z,3.25
2022-08-01T13:54:46.197Z,6.70
2022-08-01T13:57:17.336Z,4.77
2022-08-01T13:59:47.124Z,3.50
2022-08-01T14:02:16.896Z,6.08
2022-08-01T14:04:46.670Z,6.80
2022-08-01T14:07:16.208Z,5.80
2022-08-01T14:10:04.722Z,4.57
2022-08-01T14:12:17.243Z,4.13
2022-08-01T14:14:46.991Z,5.20
2022-08-01T14:17:16.769Z,5.23
2022-08-01T14:19:46.571Z,8.90
2022-08-01T14:22:16.297Z,5.10
2022-08-01T14:24:46.336Z,7.63
2022-08-01T14:27:17.740Z,6.70
2022-08-01T14:29:54.830Z,5.83
2022-08-01T14:32:18.825Z,7.33
2022-08-01T14:34:50.290Z,8.30
2022-08-01T14:37:20.129Z,5.53
2022-08-01T14:39:53.401Z,4.47
2022-08-01T14:42:21.369Z,4.50
2022-08-01T14:44:51.202Z,4.10
2022-08-01T14:47:22.166Z,5.30
2022-08-01T14:49:52.955Z,2.70
2022-08-01T14:52:22.506Z,3.87
2022-08-01T14:54:52.260Z,4.23
2022-08-01T14:57:22.035Z,3.50
2022-08-01T14:59:51.785Z,4.50
2022-08-01T15:02:21.440Z,3.63
2022-08-01T15:04:51.915Z,2.70
2022-08-01T15:07:21.678Z,3.77
2022-08-01T15:09:51.157Z,3.10
2022-08-01T15:12:20.755Z,4.90
2022-08-01T15:14:50.803Z,7.20
2022-08-01T15:17:26.579Z,3.65
2022-08-01T15:19:57.988Z,3.40
2022-08-01T15:22:28.938Z,3.03
2022-08-01T15:25:01.245Z,3.33
2022-08-01T15:27:31.177Z,3.30
2022-08-01T15:30:00.941Z,3.53
2022-08-01T15:32:30.780Z,4.40
2022-08-01T15:35:01.204Z,1.98
2022-08-01T15:37:30.971Z,2.87
2022-08-01T15:40:00.737Z,3.23
2022-08-01T15:42:30.499Z,2.97
2022-08-01T15:45:00.263Z,1.30
2022-08-01T15:47:30.045Z,2.90
2022-08-01T15:50:01.446Z,1.50
2022-08-01T15:52:31.922Z,2.40
2022-08-01T15:55:02.393Z,2.43
2022-08-01T15:57:32.163Z,4.10
2022-08-01T16:00:01.931Z,3.23
2022-08-01T16:02:33.150Z,1.65
2022-08-01T16:05:02.931Z,3.03
2022-08-01T16:07:32.752Z,1.53
2022-08-01T16:10:02.299Z,2.80
2022-08-01T16:12:32.055Z,1.43
2022-08-01T16:15:01.840Z,4.33
2022-08-01T16:17:31.604Z,2.90
2022-08-01T16:20:01.696Z,3.75
2022-08-01T16:22:31.458Z,1.70
2022-08-01T16:25:01.215Z,2.00
2022-08-01T16:27:31.478Z,3.83
2022-08-01T16:30:01.242Z,4.53
2022-08-01T16:32:42.786Z,2.57
2022-08-01T16:35:02.866Z,3.55
2022-08-01T16:37:32.806Z,2.50
2022-08-01T16:40:02.869Z,2.87
2022-08-01T16:42:32.626Z,1.50
2022-08-01T16:45:03.969Z,3.47
2022-08-01T16:47:34.355Z,2.73
2022-08-01T16:50:06.587Z,2.58
2022-08-01T16:52:41.664Z,2.97
2022-08-01T16:55:09.055Z,4.47
2022-08-01T16:57:39.068Z,1.83
2022-08-01T17:00:21.376Z,4.67
2022-08-01T17:02:48.087Z,1.97
2022-08-01T17:05:17.940Z,2.75
2022-08-01T17:07:48.180Z,3.03
2022-08-01T17:10:17.938Z,2.43
2022-08-01T17:12:47.455Z,1.80
2022-08-01T17:15:17.127Z,4.00
2022-08-01T17:17:46.882Z,2.87
2022-08-01T17:20:16.653Z,4.53
2022-08-01T17:22:46.413Z,3.97
2022-08-01T17:25:17.791Z,2.80
2022-08-01T17:27:48.972Z,2.47
2022-08-01T17:30:19.273Z,2.92
2022-08-01T17:32:49.275Z,1.67
2022-08-01T17:35:19.275Z,2.40
2022-08-01T17:37:49.101Z,4.20
2022-08-01T17:40:39.204Z,5.83
2022-08-01T17:42:50.317Z,3.70
2022-08-01T17:45:28.241Z,4.42
2022-08-01T17:47:51.599Z,2.30
2022-08-01T17:50:21.443Z,2.10
2022-08-01T17:52:51.201Z,3.97
2022-08-01T17:55:53.285Z,3.05
2022-08-01T17:57:52.313Z,3.30
2022-08-01T18:00:21.779Z,1.40
2022-08-01T18:02:51.616Z,2.90
2022-08-01T18:05:21.227Z,1.73
2022-08-01T18:08:02.004Z,1.30
2022-08-01T18:10:25.686Z,2.13
2022-08-01T18:12:55.683Z,1.33
2022-08-01T18:15:26.967Z,1.23
2022-08-01T18:17:57.864Z,3.40
2022-08-01T18:20:27.618Z,1.27
2022-08-01T18:22:58.200Z,0.70
2022-08-01T18:25:30.296Z,2.50
2022-08-01T18:28:29.909Z,4.10
2022-08-01T18:30:31.776Z,2.93
2022-08-01T18:33:01.537Z,4.20
2022-08-01T18:35:51.600Z,2.70
2022-08-01T18:38:02.762Z,1.57
2022-08-01T18:40:34.258Z,4.53
2022-08-01T18:43:04.049Z,2.63
2022-08-01T18:45:37.416Z,2.27
2022-08-01T18:48:08.213Z,3.27
2022-08-01T18:50:38.303Z,3.47
2022-08-01T18:53:08.928Z,3.97
2022-08-01T18:55:39.075Z,4.45
2022-08-01T18:58:10.974Z,6.45
2022-08-01T19:00:40.810Z,4.43
2022-08-01T19:03:10.656Z,2.60
2022-08-01T19:05:40.344Z,1.90
2022-08-01T19:08:11.553Z,3.42
2022-08-01T19:10:42.142Z,5.17
2022-08-01T19:13:11.913Z,3.27
2022-08-01T19:15:41.670Z,2.13
2022-08-01T19:18:12.288Z,3.10
2022-08-01T19:20:43.761Z,3.93
2022-08-01T19:23:31.700Z,3.77
2022-08-01T19:26:04.497Z,4.83
2022-08-01T19:28:38.248Z,2.37
2022-08-01T19:31:09.248Z,3.17
2022-08-01T19:33:40.432Z,3.90
2022-08-01T19:36:17.557Z,6.78
2022-08-01T19:38:47.674Z,2.05
2022-08-01T19:41:19.557Z,4.30
2022-08-01T19:43:49.240Z,4.55
2022-08-01T19:46:18.924Z,3.27
2022-08-01T19:48:53.684Z,3.67
2022-08-01T19:51:33.369Z,5.07
2022-08-01T19:53:56.576Z,2.85
2022-08-01T19:56:30.450Z,1.90
2022-08-01T19:59:01.611Z,3.37
2022-08-01T20:01:32.193Z,3.50
2022-08-01T20:04:06.710Z,2.43
2022-08-01T20:06:36.564Z,3.13
2022-08-01T20:09:06.863Z,3.60
2022-08-01T20:11:37.271Z,3.30
2022-08-01T20:14:07.527Z,1.83
2022-08-01T20:16:38.304Z,2.97
2022-08-01T20:19:08.153Z,3.57
2022-08-01T20:21:38.774Z,4.53
2022-08-01T20:24:13.425Z,2.08
2022-08-01T20:26:46.802Z,1.63
2022-08-01T20:29:21.059Z,3.20
2022-08-01T20:31:51.346Z,4.43
2022-08-01T20:34:24.146Z,4.55
2022-08-01T20:36:56.512Z,2.83
2022-08-01T20:39:26.597Z,3.90
2022-08-01T20:41:59.970Z,3.93
2022-08-01T20:44:31.333Z,4.00
2022-08-01T20:47:01.634Z,2.95
2022-08-01T20:49:32.921Z,2.80
2022-08-01T20:52:11.725Z,3.73
2022-08-01T20:54:34.142Z,2.47
2022-08-01T20:57:09.839Z,4.08
2022-08-01T20:59:56.564Z,4.07
2022-08-01T21:02:46.105Z,3.30
2022-08-01T21:05:18.642Z,6.97
2022-08-01T21:07:51.189Z,2.60
2022-08-01T21:10:24.713Z,4.87
2022-08-01T21:13:10.150Z,4.07
2022-08-01T21:16:22.726Z,4.90
2022-08-01T21:18:26.188Z,2.62
2022-08-01T21:21:02.358Z,8.20
2022-08-01T21:23:49.887Z,3.37
2022-08-01T21:26:21.744Z,3.70
2022-08-01T21:28:54.737Z,5.53
2022-08-01T21:31:24.447Z,2.90
2022-08-01T21:34:03.253Z,5.13
2022-08-01T21:36:29.202Z,5.90
2022-08-01T21:39:00.048Z,6.17
2022-08-01T21:42:03.430Z,5.60
2022-08-01T21:44:07.304Z,7.45
2022-08-01T21:46:37.207Z,4.50
2022-08-01T21:49:07.878Z,4.27
2022-08-01T21:51:43.429Z,5.20
2022-08-01T21:54:16.969Z,4.47
2022-08-01T21:57:04.524Z,6.23
2022-08-01T21:59:46.985Z,3.67
2022-08-01T22:02:22.737Z,6.20
2022-08-01T22:05:09.984Z,6.53
2022-08-01T22:07:50.616Z,5.20
2022-08-01T22:10:21.612Z,7.67
2022-08-01T22:12:51.628Z,5.70
2022-08-01T22:15:23.725Z,8.17
2022-08-01T22:17:53.963Z,10.83
2022-08-01T22:20:25.571Z,12.55
2022-08-01T22:22:56.573Z,7.90
2022-08-01T22:25:28.010Z,8.30
2022-08-01T22:28:05.466Z,3.67
2022-08-01T22:30:30.229Z,7.05
2022-08-01T22:33:15.350Z,5.00
2022-08-01T22:35:32.753Z,6.05
2022-08-01T22:38:02.451Z,3.40
2022-08-01T22:40:34.893Z,5.53
2022-08-01T22:43:07.807Z,3.77
2022-08-01T22:46:01.313Z,3.60
2022-08-01T22:48:53.082Z,3.80
2022-08-01T22:51:55.387Z,3.83
2022-08-01T22:54:31.450Z,5.73
2022-08-01T22:57:07.649Z,5.72
2022-08-01T22:59:51.337Z,4.43
2022-08-01T23:02:21.625Z,7.23
2022-08-01T23:04:53.282Z,4.35
2022-08-01T23:07:29.379Z,4.07
2022-08-01T23:09:59.707Z,5.83
2022-08-01T23:12:30.969Z,6.20
2022-08-01T23:15:02.584Z,4.30
2022-08-01T23:17:33.456Z,7.97
2022-08-01T23:20:06.528Z,4.90
2022-08-01T23:22:37.932Z,7.43
2022-08-01T23:25:10.382Z,5.57
2022-08-01T23:27:54.229Z,4.03
2022-08-01T23:30:17.420Z,2.93
2022-08-01T23:32:47.197Z,3.73
2022-08-01T23:35:16.674Z,5.70
2022-08-01T23:37:46.668Z,3.47
2022-08-01T23:40:16.814Z,4.42
2022-08-01T23:42:46.712Z,5.10
2022-08-01T23:45:16.812Z,2.77
2022-08-01T23:47:46.571Z,5.10
2022-08-01T23:50:17.393Z,3.55
2022-08-01T23:52:49.696Z,3.27
2022-08-01T23:55:25.111Z,2.80
2022-08-01T23:57:52.582Z,5.60
